Time;durP1;ratioP1;P1;durP2;ratioP2;P2;SDS_P1;SDS_P2;PMS_P1;PMS_P2;Temp;Humidity;BMP_temperature;BMP_pressure;BME280_temperature;BME280_humidity;BME280_pressure;Samples;Min_cycle;Max_cycle;Signal;HPM_P1;HPM_P2
2023/03/17 00:00:45;;;;;;;2.00;1.20;;;10.40;26.80;;;;;;5023347;28;20652;-74
2023/03/17 00:03:24;;;;;;;2.57;1.40;;;10.20;27.70;;;;;;5027287;28;20431;-72
2023/03/17 00:05:52;;;;;;;2.43;1.60;;;10.40;27.00;;;;;;5025119;28;20446;-73
2023/03/17 00:08:27;;;;;;;2.10;1.33;;;10.50;26.80;;;;;;5028704;28;20435;-73
2023/03/17 00:10:53;;;;;;;2.00;1.20;;;10.60;26.40;;;;;;5025277;28;20431;-73
2023/03/17 00:13:19;;;;;;;2.00;1.20;;;10.60;26.50;;;;;;5022022;28;20606;-73
2023/03/17 00:15:47;;;;;;;1.90;1.10;;;10.30;27.10;;;;;;5032807;28;20497;-74
2023/03/17 00:18:16;;;;;;;2.30;1.40;;;10.40;26.60;;;;;;5032269;28;20188;-74
2023/03/17 00:20:43;;;;;;;2.00;1.10;;;10.40;26.90;;;;;;5032482;28;20437;-74
2023/03/17 00:23:15;;;;;;;2.00;1.20;;;10.40;26.90;;;;;;5032246;28;20556;-74
2023/03/17 00:25:42;;;;;;;2.20;1.30;;;10.20;27.10;;;;;;5033614;28;20199;-75
2023/03/17 00:28:19;;;;;;;2.35;1.52;;;10.40;26.60;;;;;;5030095;28;20272;-72
2023/03/17 00:30:46;;;;;;;2.10;1.27;;;10.70;26.40;;;;;;5032892;28;20648;-72
2023/03/17 00:33:15;;;;;;;1.90;1.10;;;10.50;26.50;;;;;;5028919;28;20199;-74
2023/03/17 00:35:42;;;;;;;2.00;1.23;;;10.50;27.30;;;;;;5030557;28;20675;-73
2023/03/17 00:38:15;;;;;;;2.13;1.30;;;10.30;26.90;;;;;;5030720;28;20711;-73
2023/03/17 00:40:41;;;;;;;1.90;1.10;;;10.30;26.50;;;;;;5029995;28;20181;-73
2023/03/17 00:43:08;;;;;;;2.00;1.20;;;10.40;26.50;;;;;;5031319;28;20239;-74
2023/03/17 00:45:34;;;;;;;2.28;1.38;;;10.80;26.00;;;;;;5031107;28;20538;-73
2023/03/17 00:48:00;;;;;;;1.98;1.20;;;11.20;26.00;;;;;;5032633;28;20180;-73
2023/03/17 00:50:28;;;;;;;2.00;1.20;;;11.20;25.30;;;;;;5029288;28;20211;-73
2023/03/17 00:52:55;;;;;;;2.00;1.20;;;11.40;25.40;;;;;;5031966;28;20419;-73
2023/03/17 00:55:23;;;;;;;2.00;1.20;;;11.40;25.60;;;;;;5031467;28;20454;-74
2023/03/17 00:57:49;;;;;;;2.40;1.50;;;11.50;24.50;;;;;;5032114;28;20407;-74
2023/03/17 01:00:25;;;;;;;2.20;1.20;;;11.70;24.30;;;;;;5028632;28;20481;-74
2023/03/17 01:02:53;;;;;;;2.20;1.50;;;11.80;23.90;;;;;;5036586;28;20438;-73
2023/03/17 01:05:21;;;;;;;2.03;1.20;;;11.60;24.10;;;;;;5041953;28;20501;-73
2023/03/17 01:07:51;;;;;;;2.00;1.20;;;11.90;24.10;;;;;;5038013;28;20586;-73
2023/03/17 01:10:24;;;;;;;2.10;1.20;;;11.90;25.00;;;;;;5039847;28;20913;-73
2023/03/17 01:12:54;;;;;;;2.00;1.20;;;11.40;24.80;;;;;;5039074;28;20176;-73
2023/03/17 01:15:21;;;;;;;2.00;1.20;;;11.20;25.40;;;;;;5043772;28;20196;-73
2023/03/17 01:17:49;;;;;;;2.20;1.50;;;10.80;26.00;;;;;;5037987;28;20180;-73
2023/03/17 01:20:21;;;;;;;2.20;1.40;;;10.70;27.10;;;;;;5032375;28;20485;-73
2023/03/17 01:22:47;;;;;;;1.92;1.17;;;10.60;26.80;;;;;;5025825;28;20212;-74
2023/03/17 01:25:13;;;;;;;2.20;1.40;;;10.60;26.70;;;;;;5031621;28;20164;-73
2023/03/17 01:27:40;;;;;;;1.90;1.10;;;11.20;27.30;;;;;;5031646;28;20173;-73
2023/03/17 01:30:18;;;;;;;2.00;1.10;;;10.70;26.50;;;;;;5030515;28;20211;-74
2023/03/17 01:32:44;;;;;;;2.13;1.33;;;10.40;26.90;;;;;;5021880;28;20176;-71
2023/03/17 01:35:10;;;;;;;2.35;1.60;;;10.30;27.40;;;;;;5029518;28;20215;-74
2023/03/17 01:37:36;;;;;;;2.00;1.20;;;10.30;28.40;;;;;;5085708;22;20235;-67
2023/03/17 01:40:02;;;;;;;1.90;1.08;;;9.90;29.10;;;;;;5031281;28;20259;-66
2023/03/17 01:42:28;;;;;;;1.90;1.10;;;9.70;29.10;;;;;;5029364;28;20193;-68
2023/03/17 01:45:04;;;;;;;2.00;1.20;;;9.70;29.00;;;;;;5029592;28;20599;-68
2023/03/17 01:47:30;;;;;;;1.95;1.15;;;9.40;30.00;;;;;;5031043;28;20242;-67
2023/03/17 01:50:05;;;;;;;2.10;1.30;;;9.50;29.90;;;;;;5030570;28;20275;-66
2023/03/17 01:52:34;;;;;;;1.90;1.20;;;9.30;30.30;;;;;;5007762;28;20206;-67
2023/03/17 01:55:05;;;;;;;4.47;1.45;;;9.10;30.90;;;;;;5027298;28;20214;-67
2023/03/17 01:57:45;;;;;;;1.98;1.20;;;8.30;33.30;;;;;;5031088;28;20251;-66
2023/03/17 02:00:17;;;;;;;2.10;1.30;;;8.40;33.70;;;;;;5031135;28;20175;-66
2023/03/17 02:02:52;;;;;;;1.90;1.10;;;8.60;33.40;;;;;;5029982;28;20277;-66
2023/03/17 02:05:27;;;;;;;2.10;1.30;;;9.00;32.50;;;;;;5028868;28;20230;-66
2023/03/17 02:07:54;;;;;;;2.20;1.45;;;9.30;32.00;;;;;;5030020;28;20283;-66
2023/03/17 02:10:22;;;;;;;1.90;1.13;;;9.50;31.00;;;;;;5007406;28;20190;-67
2023/03/17 02:12:54;;;;;;;2.00;1.30;;;9.60;31.20;;;;;;5015037;28;20527;-66
2023/03/17 02:15:20;;;;;;;1.90;1.17;;;9.60;30.60;;;;;;5014781;28;20410;-66
2023/03/17 02:17:46;;;;;;;1.83;1.10;;;9.20;31.30;;;;;;5029921;28;20262;-66
2023/03/17 02:20:14;;;;;;;1.90;1.20;;;9.00;32.50;;;;;;5030869;28;20177;-66
2023/03/17 02:22:42;;;;;;;1.85;1.10;;;8.70;32.20;;;;;;5029021;28;20185;-66
2023/03/17 02:25:07;;;;;;;1.90;1.20;;;8.20;34.90;;;;;;5029293;28;22000;-66
2023/03/17 02:27:38;;;;;;;2.10;1.20;;;8.00;35.00;;;;;;5028669;28;20224;-66
2023/03/17 02:30:05;;;;;;;2.00;1.23;;;8.00;35.00;;;;;;5030952;28;20176;-66
2023/03/17 02:32:37;;;;;;;1.83;1.13;;;7.70;35.60;;;;;;5031083;28;20169;-66
2023/03/17 02:35:04;;;;;;;1.90;1.20;;;7.70;36.80;;;;;;5029148;28;20234;-67
2023/03/17 02:37:30;;;;;;;1.90;1.20;;;8.10;35.40;;;;;;5028282;28;20694;-66
2023/03/17 02:39:55;;;;;;;1.80;1.17;;;8.30;35.00;;;;;;5030249;28;20193;-66
2023/03/17 02:42:21;;;;;;;1.83;1.20;;;8.70;34.60;;;;;;5014011;28;20633;-66
2023/03/17 02:44:47;;;;;;;2.10;1.40;;;8.80;33.00;;;;;;5020031;28;20178;-67
2023/03/17 02:47:13;;;;;;;1.95;1.30;;;8.50;33.60;;;;;;5015794;28;20304;-67
2023/03/17 02:49:40;;;;;;;1.80;1.10;;;7.90;35.40;;;;;;5032258;28;20221;-66
2023/03/17 02:52:07;;;;;;;1.90;1.20;;;8.00;35.30;;;;;;5029872;28;20184;-66
2023/03/17 02:54:33;;;;;;;1.90;1.20;;;8.00;35.50;;;;;;5033790;28;20189;-66
2023/03/17 02:56:59;;;;;;;1.90;1.20;;;8.30;34.70;;;;;;5026637;28;20208;-66
2023/03/17 02:59:25;;;;;;;2.60;1.50;;;8.60;34.10;;;;;;5037063;28;20756;-67
2023/03/17 03:01:51;;;;;;;1.90;1.10;;;8.80;33.30;;;;;;5034012;28;20214;-66
2023/03/17 03:04:18;;;;;;;2.57;1.40;;;8.90;33.20;;;;;;5026824;28;20267;-67
2023/03/17 03:06:45;;;;;;;1.90;1.20;;;9.00;33.10;;;;;;5017000;28;20243;-66
2023/03/17 03:09:12;;;;;;;2.20;1.27;;;9.20;32.70;;;;;;5019520;28;20335;-66
2023/03/17 03:11:38;;;;;;;2.00;1.20;;;9.10;32.60;;;;;;5034541;28;20173;-69
2023/03/17 03:14:05;;;;;;;2.17;1.40;;;9.10;33.10;;;;;;5033648;28;20185;-69
2023/03/17 03:16:31;;;;;;;2.05;1.25;;;9.30;32.70;;;;;;5031522;28;20204;-69
2023/03/17 03:18:56;;;;;;;1.90;1.20;;;9.70;32.90;;;;;;5021444;28;20192;-69
2023/03/17 03:21:23;;;;;;;2.00;1.23;;;8.90;34.00;;;;;;5034454;28;20189;-69
2023/03/17 03:23:48;;;;;;;1.90;1.20;;;9.10;32.60;;;;;;5031789;28;20256;-67
2023/03/17 03:26:15;;;;;;;2.20;1.50;;;9.30;33.00;;;;;;5010634;28;20961;-67
2023/03/17 03:28:41;;;;;;;2.03;1.27;;;9.30;32.70;;;;;;5016406;28;20189;-67
2023/03/17 03:31:06;;;;;;;4.20;1.40;;;9.40;32.80;;;;;;5032692;28;20192;-67
2023/03/17 03:33:32;;;;;;;2.10;1.30;;;9.50;32.90;;;;;;5030603;28;20489;-67
2023/03/17 03:35:58;;;;;;;1.90;1.20;;;9.40;32.80;;;;;;5028386;28;20456;-67
2023/03/17 03:38:25;;;;;;;1.90;1.00;;;8.70;33.60;;;;;;5013387;28;20478;-66
2023/03/17 03:40:51;;;;;;;2.38;1.42;;;8.40;35.60;;;;;;5034000;28;20439;-67
2023/03/17 03:43:17;;;;;;;1.90;1.10;;;8.10;35.60;;;;;;5016956;28;20592;-67
2023/03/17 03:45:42;;;;;;;2.03;1.20;;;8.30;35.40;;;;;;5031472;28;20795;-67
2023/03/17 03:48:08;;;;;;;2.00;1.10;;;8.50;34.90;;;;;;5025688;28;20204;-66
2023/03/17 03:50:34;;;;;;;2.00;1.20;;;8.80;33.90;;;;;;5032921;28;20189;-67
2023/03/17 03:52:59;;;;;;;2.00;1.20;;;8.20;34.60;;;;;;5031059;28;20185;-67
2023/03/17 03:55:25;;;;;;;2.50;1.40;;;8.40;35.00;;;;;;5032353;28;20682;-68
2023/03/17 03:57:51;;;;;;;2.10;1.30;;;8.60;34.60;;;;;;5027982;28;20268;-67
2023/03/17 04:00:17;;;;;;;1.90;1.10;;;8.70;33.90;;;;;;5031576;28;20173;-66
2023/03/17 04:02:45;;;;;;;2.33;1.35;;;8.60;34.20;;;;;;5033031;28;20537;-67
2023/03/17 04:05:17;;;;;;;2.08;1.17;;;8.50;34.40;;;;;;5031801;28;20632;-68
2023/03/17 04:07:43;;;;;;;2.20;1.33;;;8.60;34.60;;;;;;4995354;28;20746;-67
2023/03/17 04:10:11;;;;;;;2.00;1.10;;;8.40;35.10;;;;;;5026014;28;20176;-67
2023/03/17 04:12:37;;;;;;;2.60;1.38;;;8.30;34.70;;;;;;5032268;28;20193;-68
2023/03/17 04:15:04;;;;;;;2.00;1.10;;;8.40;35.10;;;;;;5015652;28;20263;-67
2023/03/17 04:17:30;;;;;;;2.10;1.20;;;8.50;34.30;;;;;;5004804;28;20209;-68
2023/03/17 04:19:56;;;;;;;2.10;1.10;;;8.40;34.40;;;;;;5019188;28;20184;-68
2023/03/17 04:22:21;;;;;;;2.10;1.10;;;8.30;36.10;;;;;;5030044;28;20953;-67
2023/03/17 04:24:47;;;;;;;2.30;1.30;;;8.40;35.00;;;;;;5031712;28;20187;-68
2023/03/17 04:27:14;;;;;;;2.10;1.20;;;8.50;34.60;;;;;;5024865;28;20574;-67
2023/03/17 04:29:41;;;;;;;2.25;1.23;;;8.50;34.10;;;;;;5013607;28;20622;-67
2023/03/17 04:32:10;;;;;;;2.10;1.10;;;8.60;33.80;;;;;;5030930;28;20646;-68
2023/03/17 04:34:36;;;;;;;2.10;1.10;;;8.20;35.20;;;;;;5032033;28;20674;-67
2023/03/17 04:37:01;;;;;;;3.33;2.13;;;8.30;35.40;;;;;;5013430;28;20216;-67
2023/03/17 04:39:27;;;;;;;2.13;1.20;;;8.60;35.20;;;;;;5022628;28;20240;-68
2023/03/17 04:41:53;;;;;;;2.17;1.10;;;8.20;35.20;;;;;;5023655;28;20259;-67
2023/03/17 04:44:19;;;;;;;2.50;1.50;;;8.20;35.40;;;;;;5032086;28;20283;-67
2023/03/17 04:46:45;;;;;;;2.20;1.10;;;8.20;35.70;;;;;;5030715;28;20276;-67
2023/03/17 04:49:11;;;;;;;2.50;1.38;;;8.40;34.40;;;;;;5031012;28;20192;-67
2023/03/17 04:51:37;;;;;;;2.40;1.38;;;8.50;34.80;;;;;;5030391;28;20667;-67
2023/03/17 04:54:03;;;;;;;2.30;1.20;;;8.50;34.60;;;;;;5014423;28;20192;-67
2023/03/17 04:56:29;;;;;;;2.20;1.10;;;7.90;35.80;;;;;;5020702;28;20196;-67
2023/03/17 04:58:55;;;;;;;2.20;1.10;;;7.60;37.20;;;;;;5030378;28;20180;-67
2023/03/17 05:01:20;;;;;;;2.30;1.10;;;7.80;36.50;;;;;;5030823;28;20176;-67
2023/03/17 05:03:46;;;;;;;2.40;1.30;;;7.90;36.40;;;;;;5029508;28;20522;-67
2023/03/17 05:06:12;;;;;;;2.30;1.20;;;7.90;36.30;;;;;;5028060;28;20938;-67
2023/03/17 05:08:38;;;;;;;2.83;1.63;;;8.40;35.80;;;;;;5030331;28;20690;-68
2023/03/17 05:11:04;;;;;;;4.63;1.67;;;8.20;35.70;;;;;;5024767;28;20575;-67
2023/03/17 05:13:30;;;;;;;2.72;1.50;;;8.20;35.20;;;;;;5021070;28;20200;-67
2023/03/17 05:15:58;;;;;;;2.70;1.40;;;8.30;35.10;;;;;;5029211;28;20207;-67
2023/03/17 05:18:24;;;;;;;2.53;1.33;;;8.10;35.50;;;;;;5022606;28;20220;-67
2023/03/17 05:20:50;;;;;;;2.40;1.10;;;7.70;36.10;;;;;;5011935;28;20184;-67
2023/03/17 05:23:15;;;;;;;2.37;1.10;;;7.80;36.90;;;;;;5026019;28;20189;-67
2023/03/17 05:25:41;;;;;;;2.40;1.10;;;7.90;37.80;;;;;;5029482;28;20431;-69
2023/03/17 05:28:08;;;;;;;3.80;1.70;;;7.70;36.60;;;;;;5024563;28;20204;-69
2023/03/17 05:30:37;;;;;;;2.50;1.20;;;7.50;37.80;;;;;;5011538;28;20216;-69
2023/03/17 05:33:03;;;;;;;4.45;1.83;;;7.70;36.90;;;;;;5018172;28;20184;-69
2023/03/17 05:35:29;;;;;;;2.50;1.10;;;7.70;36.90;;;;;;5029734;28;20199;-69
2023/03/17 05:37:55;;;;;;;2.60;1.20;;;7.60;37.20;;;;;;5029114;28;20220;-68
2023/03/17 05:40:22;;;;;;;2.60;1.10;;;7.30;36.10;;;;;;5014378;28;20227;-67
2023/03/17 05:42:51;;;;;;;2.65;1.20;;;6.90;37.30;;;;;;5011114;28;20180;-69
2023/03/17 05:45:17;;;;;;;2.92;1.42;;;6.80;37.80;;;;;;5018692;28;20184;-69
2023/03/17 05:47:43;;;;;;;2.70;1.20;;;7.10;36.90;;;;;;5028899;28;20282;-69
2023/03/17 05:50:10;;;;;;;2.80;1.20;;;7.50;35.40;;;;;;5023814;28;20639;-69
2023/03/17 05:52:36;;;;;;;2.70;1.10;;;7.90;35.00;;;;;;5029705;28;20187;-69
2023/03/17 05:55:03;;;;;;;2.70;1.10;;;7.80;35.40;;;;;;5016655;28;20177;-69
2023/03/17 05:57:29;;;;;;;3.33;1.60;;;7.80;35.50;;;;;;5027884;28;20216;-65
2023/03/17 05:59:54;;;;;;;2.80;1.30;;;7.90;35.60;;;;;;5025155;28;20188;-68
2023/03/17 06:02:20;;;;;;;3.43;1.53;;;8.00;35.20;;;;;;5027384;28;20173;-69
2023/03/17 06:04:46;;;;;;;2.70;1.20;;;8.20;34.70;;;;;;5029812;28;20169;-68
2023/03/17 06:07:12;;;;;;;3.27;1.33;;;8.20;35.20;;;;;;5028294;28;20197;-68
2023/03/17 06:09:38;;;;;;;2.60;1.10;;;8.10;34.80;;;;;;5029103;28;20180;-68
2023/03/17 06:12:05;;;;;;;2.70;1.10;;;8.20;34.50;;;;;;5021674;28;20423;-69
2023/03/17 06:14:31;;;;;;;2.78;1.20;;;8.20;35.00;;;;;;5028425;28;20188;-69
2023/03/17 06:16:56;;;;;;;2.70;1.10;;;8.20;34.50;;;;;;5029053;28;20668;-69
2023/03/17 06:19:22;;;;;;;2.80;1.20;;;8.10;35.00;;;;;;5028506;28;20168;-69
2023/03/17 06:21:48;;;;;;;3.10;1.30;;;7.50;36.50;;;;;;5032232;28;20235;-70
2023/03/17 06:24:13;;;;;;;3.07;1.30;;;6.80;38.50;;;;;;5016326;28;20246;-70
2023/03/17 06:26:39;;;;;;;5.43;1.77;;;7.20;38.30;;;;;;5034276;28;20613;-70
2023/03/17 06:29:10;;;;;;;2.80;1.10;;;7.70;36.70;;;;;;5034946;28;20648;-70
2023/03/17 06:31:36;;;;;;;2.80;1.10;;;8.10;36.00;;;;;;5033766;28;20200;-70
2023/03/17 06:34:02;;;;;;;2.90;1.10;;;8.20;35.40;;;;;;5030674;28;20189;-70
2023/03/17 06:36:28;;;;;;;3.10;1.38;;;8.30;35.20;;;;;;5032615;28;20734;-70
2023/03/17 06:38:54;;;;;;;3.00;1.20;;;8.20;35.10;;;;;;5034325;28;20197;-70
2023/03/17 06:41:19;;;;;;;3.73;1.70;;;8.20;35.00;;;;;;5033653;28;20276;-69
2023/03/17 06:43:45;;;;;;;3.10;1.30;;;8.10;35.30;;;;;;5015644;28;20207;-69
2023/03/17 06:46:11;;;;;;;3.10;1.27;;;7.30;38.40;;;;;;5016943;28;20185;-69
2023/03/17 06:48:37;;;;;;;3.47;1.43;;;7.50;37.60;;;;;;5034188;28;20189;-69
2023/03/17 06:51:03;;;;;;;3.20;1.30;;;7.80;37.20;;;;;;5034495;28;20914;-69
2023/03/17 06:53:28;;;;;;;5.20;2.73;;;8.00;36.90;;;;;;5034274;28;20177;-70
2023/03/17 06:55:55;;;;;;;3.20;1.40;;;8.40;36.10;;;;;;5031385;28;20678;-70
2023/03/17 06:58:21;;;;;;;2.90;1.10;;;8.30;35.10;;;;;;5030160;28;20207;-70
2023/03/17 07:00:47;;;;;;;3.20;1.25;;;8.60;34.60;;;;;;5034200;28;20169;-70
2023/03/17 07:03:16;;;;;;;2.90;1.30;;;8.40;34.80;;;;;;5033959;28;20171;-69
2023/03/17 07:05:42;;;;;;;2.70;1.10;;;8.40;34.70;;;;;;5034033;28;20426;-69
2023/03/17 07:08:08;;;;;;;2.70;1.20;;;8.60;35.00;;;;;;5030301;28;20205;-70
2023/03/17 07:10:35;;;;;;;2.70;1.20;;;9.10;34.20;;;;;;5033979;28;20183;-69
2023/03/17 07:13:01;;;;;;;4.95;2.58;;;9.30;32.70;;;;;;5033690;28;20794;-70
2023/03/17 07:15:27;;;;;;;2.50;1.10;;;9.60;32.70;;;;;;5034043;28;20186;-70
2023/03/17 07:17:53;;;;;;;3.05;1.92;;;9.70;33.00;;;;;;5030943;28;20198;-70
2023/03/17 07:20:19;;;;;;;3.73;1.80;;;9.90;32.10;;;;;;5015709;28;20228;-70
2023/03/17 07:22:45;;;;;;;2.50;1.38;;;9.90;32.10;;;;;;5029401;28;20433;-70
2023/03/17 07:25:11;;;;;;;3.00;1.70;;;10.00;30.50;;;;;;5014030;28;20946;-70
2023/03/17 07:27:37;;;;;;;3.55;1.60;;;10.10;29.80;;;;;;5014208;28;20195;-70
2023/03/17 07:30:04;;;;;;;2.20;1.10;;;10.10;30.60;;;;;;5029757;28;20202;-70
2023/03/17 07:32:31;;;;;;;2.20;1.15;;;9.90;31.60;;;;;;5032548;28;20191;-68
2023/03/17 07:34:57;;;;;;;2.20;1.20;;;10.40;29.20;;;;;;5032269;28;20189;-70
2023/03/17 07:37:23;;;;;;;2.17;1.20;;;10.90;28.90;;;;;;5032146;28;20253;-70
2023/03/17 07:39:48;;;;;;;2.40;1.60;;;11.20;28.70;;;;;;5030443;28;20281;-70
2023/03/17 07:42:16;;;;;;;2.10;1.23;;;10.80;29.10;;;;;;5033421;28;20219;-70
2023/03/17 07:44:42;;;;;;;2.00;1.20;;;11.10;27.60;;;;;;5013641;28;20184;-70
2023/03/17 07:47:09;;;;;;;3.60;2.20;;;10.40;28.50;;;;;;4995906;28;20207;-70
2023/03/17 07:49:35;;;;;;;3.25;1.60;;;10.40;29.10;;;;;;5015547;28;20182;-70
2023/03/17 07:52:00;;;;;;;3.17;1.90;;;10.90;28.70;;;;;;5032402;28;20212;-70
2023/03/17 07:54:27;;;;;;;2.23;1.40;;;10.80;28.30;;;;;;5032320;28;20180;-69
2023/03/17 07:56:54;;;;;;;1.98;1.20;;;11.20;28.80;;;;;;5030224;28;20200;-70
2023/03/17 07:59:20;;;;;;;2.00;1.30;;;11.20;28.10;;;;;;5027605;28;20588;-70
2023/03/17 08:01:45;;;;;;;2.10;1.40;;;11.60;28.10;;;;;;5032584;28;20431;-70
2023/03/17 08:04:12;;;;;;;2.20;1.50;;;11.40;27.50;;;;;;5017129;28;20416;-70
2023/03/17 08:06:40;;;;;;;2.00;1.30;;;10.80;28.10;;;;;;5017771;28;20178;-70
2023/03/17 08:09:07;;;;;;;1.77;1.13;;;10.40;28.40;;;;;;5025823;28;20499;-70
2023/03/17 08:11:33;;;;;;;2.00;1.37;;;10.50;28.60;;;;;;5030443;28;20533;-69
2023/03/17 08:14:01;;;;;;;2.10;1.47;;;10.60;28.70;;;;;;5029316;28;20874;-70
2023/03/17 08:16:27;;;;;;;1.80;1.20;;;10.60;28.50;;;;;;5030650;28;20467;-68
2023/03/17 08:18:54;;;;;;;1.87;1.20;;;10.60;28.70;;;;;;5032313;28;20427;-70
2023/03/17 08:21:19;;;;;;;2.57;1.70;;;11.20;28.00;;;;;;5008768;28;20450;-76
2023/03/17 08:23:46;;;;;;;1.80;1.20;;;11.20;27.80;;;;;;5028880;28;20494;-75
2023/03/17 08:26:13;;;;;;;2.00;1.30;;;11.40;27.90;;;;;;5013498;28;20417;-75
2023/03/17 08:28:39;;;;;;;2.20;1.40;;;11.40;27.70;;;;;;5027445;28;20455;-75
2023/03/17 08:31:25;;;;;;;2.87;2.30;;;11.60;27.30;;;;;;5023264;28;20961;-74
2023/03/17 08:33:53;;;;;;;2.10;1.40;;;11.80;27.10;;;;;;5028287;28;20569;-69
2023/03/17 08:36:19;;;;;;;2.37;1.37;;;12.20;26.70;;;;;;5032189;28;20463;-69
2023/03/17 08:38:46;;;;;;;2.07;1.40;;;12.70;25.80;;;;;;5030493;28;20451;-70
2023/03/17 08:41:15;;;;;;;1.90;1.27;;;12.90;25.60;;;;;;5032149;28;20446;-70
2023/03/17 08:43:42;;;;;;;1.80;1.20;;;13.60;24.30;;;;;;5022222;28;20506;-69
2023/03/17 08:46:15;;;;;;;2.00;1.30;;;13.40;24.20;;;;;;5027664;28;20439;-70
2023/03/17 08:48:41;;;;;;;2.33;1.40;;;13.30;24.60;;;;;;5028871;28;20462;-69
2023/03/17 08:51:07;;;;;;;2.00;1.30;;;13.00;25.70;;;;;;5028384;28;20436;-69
2023/03/17 08:53:33;;;;;;;1.90;1.20;;;12.80;25.30;;;;;;5028448;28;21034;-69
2023/03/17 08:56:00;;;;;;;1.80;1.10;;;13.10;24.50;;;;;;5008462;28;20462;-69
2023/03/17 08:58:26;;;;;;;1.83;1.27;;;13.10;24.60;;;;;;5030185;28;20448;-69
2023/03/17 09:00:52;;;;;;;2.10;1.50;;;13.40;24.20;;;;;;5029746;28;20490;-70
2023/03/17 09:03:19;;;;;;;2.23;1.53;;;13.20;24.60;;;;;;5029520;28;20433;-69
2023/03/17 09:05:45;;;;;;;2.83;1.50;;;13.00;24.50;;;;;;5030157;28;20439;-69
2023/03/17 09:08:11;;;;;;;1.80;1.20;;;12.90;24.60;;;;;;5023820;28;20447;-69
2023/03/17 09:10:37;;;;;;;2.40;1.30;;;13.30;24.20;;;;;;5028327;28;20445;-69
2023/03/17 09:13:03;;;;;;;1.93;1.20;;;12.90;24.90;;;;;;5027734;28;20516;-69
2023/03/17 09:15:32;;;;;;;2.20;1.40;;;13.20;24.70;;;;;;5011416;28;20469;-69
2023/03/17 09:17:58;;;;;;;1.80;1.20;;;13.60;24.00;;;;;;5031267;28;20257;-69
2023/03/17 09:20:24;;;;;;;1.80;1.20;;;13.70;24.60;;;;;;5023453;28;20412;-69
2023/03/17 09:22:50;;;;;;;1.90;1.20;;;13.70;24.20;;;;;;5029419;28;20450;-69
2023/03/17 09:25:16;;;;;;;2.10;1.40;;;13.50;24.80;;;;;;5028532;28;20188;-69
2023/03/17 09:27:42;;;;;;;1.70;1.10;;;13.60;25.00;;;;;;5030664;28;20837;-69
2023/03/17 09:30:09;;;;;;;2.10;1.40;;;13.50;25.80;;;;;;5026843;28;20408;-69
2023/03/17 09:32:36;;;;;;;2.40;1.63;;;13.10;25.80;;;;;;5030285;28;20471;-69
2023/03/17 09:35:02;;;;;;;1.90;1.20;;;13.70;25.30;;;;;;5029109;28;20883;-68
2023/03/17 09:37:28;;;;;;;1.80;1.10;;;13.80;25.20;;;;;;5029028;28;20531;-69
2023/03/17 09:39:54;;;;;;;1.80;1.20;;;14.30;24.70;;;;;;5028052;28;20441;-68
2023/03/17 09:42:50;;;;;;;1.90;1.20;;;14.20;24.50;;;;;;5028664;28;20861;-71
2023/03/17 09:45:25;;;;;;;2.37;1.53;;;14.60;24.10;;;;;;5028242;28;20932;-68
2023/03/17 09:48:16;;;;;;;1.80;1.10;;;15.40;22.70;;;;;;5026436;28;20823;-68
2023/03/17 09:50:49;;;;;;;2.00;1.30;;;15.30;22.60;;;;;;5027447;28;20514;-68
2023/03/17 09:53:26;;;;;;;1.90;1.17;;;14.80;23.30;;;;;;5028704;28;20416;-68
2023/03/17 09:55:57;;;;;;;2.20;1.60;;;14.70;23.30;;;;;;5015775;28;20801;-70
2023/03/17 09:58:32;;;;;;;2.20;1.47;;;15.00;22.90;;;;;;5032501;28;20539;-68
2023/03/17 10:00:59;;;;;;;2.00;1.30;;;15.40;22.60;;;;;;5030931;28;20821;-68
2023/03/17 10:03:26;;;;;;;2.77;1.50;;;15.70;22.30;;;;;;5031789;28;21201;-68
2023/03/17 10:05:52;;;;;;;2.10;1.43;;;15.90;22.20;;;;;;5032181;28;20509;-68
2023/03/17 10:08:32;;;;;;;2.27;1.37;;;15.40;22.10;;;;;;5024093;28;20466;-68
2023/03/17 10:11:09;;;;;;;2.40;1.50;;;15.60;22.10;;;;;;5034400;28;20441;-68
2023/03/17 10:13:56;;;;;;;2.10;1.40;;;16.50;20.50;;;;;;5034151;28;20435;-68
2023/03/17 10:16:48;;;;;;;2.00;1.30;;;17.00;20.30;;;;;;5033031;28;20978;-67
2023/03/17 10:19:22;;;;;;;2.37;1.60;;;17.20;20.50;;;;;;5016254;28;20529;-68
2023/03/17 10:22:15;;;;;;;2.07;1.37;;;18.20;20.60;;;;;;5027672;28;20420;-68
2023/03/17 10:24:48;;;;;;;2.00;1.30;;;18.30;18.50;;;;;;5024548;28;20829;-68
2023/03/17 10:27:14;;;;;;;2.00;1.30;;;18.90;17.70;;;;;;5028265;28;20462;-67
2023/03/17 10:29:41;;;;;;;2.10;1.40;;;18.30;19.70;;;;;;5032549;28;20431;-68
2023/03/17 10:32:11;;;;;;;1.97;1.33;;;19.00;17.90;;;;;;5028849;28;20436;-68
2023/03/17 10:34:38;;;;;;;3.43;1.90;;;19.00;19.30;;;;;;5033150;28;20475;-68
2023/03/17 10:37:05;;;;;;;4.37;1.73;;;19.70;18.80;;;;;;5031870;28;20844;-68
2023/03/17 10:39:40;;;;;;;2.20;1.53;;;19.70;17.70;;;;;;5034645;28;20412;-68
2023/03/17 10:42:12;;;;;;;2.10;1.30;;;19.10;19.30;;;;;;5033513;28;20525;-68
2023/03/17 10:44:47;;;;;;;2.27;1.40;;;18.60;17.90;;;;;;5033089;28;20491;-68
2023/03/17 10:47:25;;;;;;;2.00;1.20;;;19.10;18.50;;;;;;5034203;28;20436;-67
2023/03/17 10:49:51;;;;;;;2.30;1.47;;;18.80;18.20;;;;;;5014489;28;20895;-68
2023/03/17 10:52:34;;;;;;;2.80;1.57;;;19.90;17.70;;;;;;4996997;28;20489;-67
2023/03/17 10:55:04;;;;;;;2.87;2.00;;;19.90;16.80;;;;;;5015847;28;20461;-68
2023/03/17 10:57:30;;;;;;;2.47;1.23;;;19.60;16.70;;;;;;5033503;28;20517;-68
2023/03/17 10:59:58;;;;;;;2.80;1.60;;;19.20;16.80;;;;;;5033808;28;20421;-68
2023/03/17 11:02:29;;;;;;;2.80;1.47;;;19.40;17.40;;;;;;5032497;28;20441;-68
2023/03/17 11:05:01;;;;;;;2.80;1.50;;;21.10;16.30;;;;;;5032820;28;20430;-68
2023/03/17 11:07:35;;;;;;;2.93;1.30;;;22.40;15.90;;;;;;5033500;28;20521;-69
2023/03/17 11:10:03;;;;;;;2.90;1.20;;;23.70;13.60;;;;;;5033847;28;20423;-68
2023/03/17 11:12:39;;;;;;;3.43;1.50;;;23.20;13.90;;;;;;5032472;28;20435;-68
2023/03/17 11:15:10;;;;;;;4.70;1.60;;;22.80;14.20;;;;;;5031422;28;20442;-68
2023/03/17 11:17:55;;;;;;;3.50;1.63;;;23.00;14.40;;;;;;5033292;28;20478;-68
2023/03/17 11:20:33;;;;;;;3.30;1.43;;;23.80;14.40;;;;;;5033769;28;20458;-68
2023/03/17 11:23:22;;;;;;;3.40;1.40;;;24.60;13.00;;;;;;5032005;28;20866;-68
2023/03/17 11:26:18;;;;;;;3.43;1.47;;;24.40;13.00;;;;;;5011447;28;20423;-68
2023/03/17 11:29:14;;;;;;;3.60;1.67;;;24.20;13.80;;;;;;4953008;29;20449;-68
2023/03/17 11:32:02;;;;;;;4.60;1.50;;;24.60;13.60;;;;;;4934743;29;20534;-68
2023/03/17 11:34:51;;;;;;;3.97;1.60;;;23.30;14.60;;;;;;4938106;29;20438;-69
2023/03/17 11:37:43;;;;;;;4.40;1.73;;;22.80;15.40;;;;;;4952426;29;20596;-68
2023/03/17 11:40:23;;;;;;;3.67;1.50;;;24.00;14.90;;;;;;4954186;29;20419;-68
2023/03/17 11:43:12;;;;;;;3.70;1.40;;;25.20;12.80;;;;;;4945273;28;20987;-68
2023/03/17 11:45:55;;;;;;;3.50;1.27;;;25.90;13.30;;;;;;4944562;29;21131;-68
2023/03/17 11:48:42;;;;;;;4.20;1.50;;;27.90;11.20;;;;;;4949962;29;20907;-69
2023/03/17 11:51:33;;;;;;;4.93;1.77;;;28.60;9.20;;;;;;4953448;29;20402;-68
2023/03/17 11:54:09;;;;;;;4.80;1.80;;;28.40;9.70;;;;;;4945323;29;20434;-69
2023/03/17 11:56:50;;;;;;;4.47;1.50;;;28.10;10.00;;;;;;4951993;29;20962;-69
2023/03/17 11:59:19;;;;;;;4.23;1.27;;;28.70;9.70;;;;;;4948357;29;20535;-69
2023/03/17 12:02:00;;;;;;;3.80;1.30;;;28.50;10.10;;;;;;4952722;29;20414;-69
2023/03/17 12:04:34;;;;;;;3.70;1.20;;;27.40;9.70;;;;;;4938573;28;20621;-68
2023/03/17 12:07:14;;;;;;;4.00;1.30;;;25.70;11.40;;;;;;5013085;28;20456;-68
2023/03/17 12:09:45;;;;;;;4.10;1.30;;;26.70;12.60;;;;;;5014937;28;20727;-68
2023/03/17 12:12:14;;;;;;;4.00;1.20;;;28.00;10.20;;;;;;5027673;28;20527;-69
2023/03/17 12:14:47;;;;;;;4.30;1.57;;;28.80;8.90;;;;;;5032336;28;20442;-69
2023/03/17 12:17:38;;;;;;;4.20;1.40;;;29.40;8.20;;;;;;5030365;28;20510;-69
2023/03/17 12:20:08;;;;;;;3.47;1.10;;;29.80;7.60;;;;;;5027008;28;20820;-69
2023/03/17 12:22:54;;;;;;;3.30;1.10;;;27.40;9.00;;;;;;5032480;28;20486;-68
2023/03/17 12:25:31;;;;;;;3.40;1.20;;;27.30;9.50;;;;;;5031940;28;20438;-69
2023/03/17 12:28:19;;;;;;;3.90;1.17;;;27.10;9.80;;;;;;5032663;28;21001;-69
2023/03/17 12:31:04;;;;;;;3.93;1.50;;;26.10;10.70;;;;;;5032293;28;20457;-68
2023/03/17 12:33:35;;;;;;;3.63;1.30;;;25.50;11.90;;;;;;5032403;28;20478;-69
2023/03/17 12:36:02;;;;;;;3.27;1.10;;;26.00;12.20;;;;;;5030770;28;20459;-69
2023/03/17 12:38:38;;;;;;;3.30;1.17;;;26.30;10.90;;;;;;5032096;28;20463;-69
2023/03/17 12:41:30;;;;;;;3.60;1.30;;;26.80;10.40;;;;;;5032490;28;20753;-68
2023/03/17 12:44:14;;;;;;;4.43;1.60;;;27.10;9.90;;;;;;5031018;28;20431;-69
2023/03/17 12:46:55;;;;;;;3.60;1.20;;;26.40;10.70;;;;;;5032166;28;20442;-69
2023/03/17 12:49:43;;;;;;;4.40;1.40;;;26.20;10.60;;;;;;5032300;28;20478;-68
2023/03/17 12:52:24;;;;;;;4.37;1.40;;;27.10;11.20;;;;;;5031405;28;20942;-69
2023/03/17 12:54:52;;;;;;;4.10;1.47;;;28.40;8.90;;;;;;5031190;28;20430;-69
2023/03/17 12:57:26;;;;;;;3.90;1.20;;;27.80;9.70;;;;;;5031768;28;20459;-68
2023/03/17 13:00:14;;;;;;;4.30;1.40;;;26.20;11.10;;;;;;5032087;28;20894;-69
2023/03/17 13:02:40;;;;;;;4.47;1.40;;;26.20;10.10;;;;;;5031001;28;20422;-68
2023/03/17 13:05:13;;;;;;;4.20;1.20;;;26.10;10.90;;;;;;5014542;28;20934;-69